Time;durP1;ratioP1;P1;durP2;ratioP2;P2;SDS_P1;SDS_P2;PMS_P1;PMS_P2;Temp;Humidity;BMP_temperature;BMP_pressure;BME280_temperature;BME280_humidity;BME280_pressure;Samples;Min_cycle;Max_cycle;Signal;HPM_P1;HPM_P2
2022/06/09 00:00:49;;;;;;;2.97;2.20;;;;;;;16.45;100.00;99745.06;5063852;28;20208;-77
2022/06/09 00:03:21;;;;;;;3.50;1.70;;;;;;;16.40;100.00;99754.84;5063119;28;20184;-75
2022/06/09 00:05:47;;;;;;;2.57;1.80;;;;;;;16.33;100.00;99763.88;5068294;28;20180;-75
2022/06/09 00:08:13;;;;;;;3.27;1.40;;;;;;;16.22;100.00;99754.69;5074622;28;20212;-77
2022/06/09 00:10:43;;;;;;;1.87;1.50;;;;;;;16.14;100.00;99767.22;5069210;28;20251;-75
2022/06/09 00:13:08;;;;;;;2.27;1.40;;;;;;;16.06;100.00;99777.97;5068397;28;20199;-76
2022/06/09 00:15:34;;;;;;;2.07;1.40;;;;;;;15.95;100.00;99774.94;5067759;28;20190;-75
2022/06/09 00:17:59;;;;;;;2.43;1.33;;;;;;;15.89;100.00;99775.16;5066587;28;20190;-76
2022/06/09 00:20:24;;;;;;;3.37;1.40;;;;;;;15.82;100.00;99774.53;5070477;28;20279;-77
2022/06/09 00:22:50;;;;;;;3.10;1.60;;;;;;;15.75;100.00;99776.53;5071840;28;20640;-76
2022/06/09 00:25:15;;;;;;;1.07;0.97;;;;;;;15.69;100.00;99782.84;5069900;28;20662;-74
2022/06/09 00:27:41;;;;;;;3.70;1.30;;;;;;;15.63;100.00;99787.44;5076720;28;20186;-75
2022/06/09 00:30:08;;;;;;;1.90;1.20;;;;;;;15.58;100.00;99784.97;5069079;28;20598;-75
2022/06/09 00:32:34;;;;;;;2.30;1.40;;;;;;;15.53;100.00;99787.75;5071176;28;20199;-75
2022/06/09 00:34:59;;;;;;;1.30;1.10;;;;;;;15.49;100.00;99790.56;5062960;28;20274;-76
2022/06/09 00:37:25;;;;;;;2.13;1.40;;;;;;;15.47;100.00;99794.97;5070862;28;20264;-76
2022/06/09 00:39:50;;;;;;;2.63;1.10;;;;;;;15.43;100.00;99789.03;5066644;28;20184;-75
2022/06/09 00:42:16;;;;;;;1.87;0.90;;;;;;;15.41;100.00;99790.84;5072008;28;21136;-75
2022/06/09 00:44:43;;;;;;;2.87;0.73;;;;;;;15.38;100.00;99790.94;5072121;28;20443;-75
2022/06/09 00:47:31;;;;;;;2.50;0.97;;;;;;;15.36;100.00;99785.81;5070260;28;20211;-75
2022/06/09 00:50:05;;;;;;;1.40;1.00;;;;;;;15.34;100.00;99792.00;5067483;28;20224;-74
2022/06/09 00:52:35;;;;;;;1.47;1.10;;;;;;;15.33;100.00;99787.69;5068424;28;20200;-76
2022/06/09 00:55:05;;;;;;;2.00;1.10;;;;;;;15.34;100.00;99789.38;5071073;28;20201;-76
2022/06/09 00:57:37;;;;;;;1.10;1.00;;;;;;;15.31;100.00;99792.09;5069848;28;20204;-76
2022/06/09 01:00:25;;;;;;;2.50;1.17;;;;;;;15.29;100.00;99794.75;5073787;28;20181;-75
2022/06/09 01:02:55;;;;;;;1.90;1.20;;;;;;;15.27;100.00;99790.50;5076794;28;20178;-75
2022/06/09 01:05:23;;;;;;;2.40;1.30;;;;;;;15.26;100.00;99807.03;5078764;28;20230;-75
2022/06/09 01:07:54;;;;;;;1.13;1.10;;;;;;;15.27;100.00;99798.31;5077801;28;20198;-77
2022/06/09 01:10:19;;;;;;;1.43;0.93;;;;;;;15.24;100.00;99800.13;5075023;28;20204;-77
2022/06/09 01:12:47;;;;;;;3.50;1.10;;;;;;;15.24;100.00;99809.72;5078165;28;20223;-75
2022/06/09 01:15:16;;;;;;;2.27;0.90;;;;;;;15.20;100.00;99803.75;5073366;28;20683;-76
2022/06/09 01:18:07;;;;;;;1.17;1.07;;;;;;;15.17;100.00;99800.41;5075888;28;20243;-77
2022/06/09 01:20:51;;;;;;;0.80;0.80;;;;;;;15.14;100.00;99797.91;5072773;28;20204;-75
2022/06/09 01:23:49;;;;;;;2.17;1.17;;;;;;;15.14;100.00;99792.69;5076029;28;20186;-75
2022/06/09 01:26:29;;;;;;;1.70;1.00;;;;;;;15.14;100.00;99792.69;5070428;28;20194;-76
2022/06/09 01:28:55;;;;;;;1.53;1.07;;;;;;;15.11;100.00;99804.06;5074791;28;20205;-76
2022/06/09 01:31:59;;;;;;;2.47;0.93;;;;;;;15.10;100.00;99812.81;5074703;28;20219;-77
2022/06/09 01:34:39;;;;;;;2.00;1.10;;;;;;;15.09;100.00;99817.19;5079786;28;20195;-75
2022/06/09 01:37:14;;;;;;;2.40;1.20;;;;;;;15.06;100.00;99814.66;5071614;28;20186;-76
2022/06/09 01:39:56;;;;;;;1.47;1.30;;;;;;;15.04;100.00;99815.63;5090042;28;20550;-75
2022/06/09 01:42:23;;;;;;;2.67;1.33;;;;;;;15.01;100.00;99811.38;5072350;28;20206;-74
2022/06/09 01:44:51;;;;;;;1.47;1.10;;;;;;;15.02;100.00;99820.06;5072297;28;21092;-74
2022/06/09 01:47:20;;;;;;;2.83;1.50;;;;;;;15.01;100.00;99821.78;5065148;28;20186;-73
2022/06/09 01:49:49;;;;;;;1.37;1.27;;;;;;;14.99;100.00;99817.53;5069989;28;20204;-74
2022/06/09 01:52:14;;;;;;;1.87;1.30;;;;;;;15.00;100.00;99824.47;5072768;28;20212;-76
2022/06/09 01:54:41;;;;;;;2.00;1.50;;;;;;;14.99;100.00;99826.19;5068203;28;20188;-76
2022/06/09 01:57:15;;;;;;;1.87;1.13;;;;;;;14.99;100.00;99828.81;5070138;28;20191;-75
2022/06/09 01:59:47;;;;;;;1.37;1.20;;;;;;;14.99;100.00;99828.81;5063380;28;20177;-75
2022/06/09 02:02:19;;;;;;;1.60;1.37;;;;;;;14.97;100.00;99827.16;5068730;28;20613;-74
2022/06/09 02:04:48;;;;;;;1.50;1.40;;;;;;;14.97;100.00;99827.16;5073097;28;20340;-76
2022/06/09 02:07:15;;;;;;;2.40;1.40;;;;;;;14.94;100.00;99826.38;5061619;28;20223;-74
2022/06/09 02:09:41;;;;;;;1.40;1.30;;;;;;;14.94;100.00;99823.75;5065452;28;20207;-75
2022/06/09 02:12:10;;;;;;;2.17;1.57;;;;;;;14.94;100.00;99817.72;5077504;28;20208;-75
2022/06/09 02:14:37;;;;;;;2.30;1.43;;;;;;;14.93;100.00;99818.63;5081043;28;20185;-75
2022/06/09 02:17:06;;;;;;;1.60;1.50;;;;;;;14.93;100.00;99818.63;5072337;28;20185;-76
2022/06/09 02:19:33;;;;;;;3.07;1.40;;;;;;;14.90;100.00;99821.31;5077269;28;20217;-75
2022/06/09 02:21:59;;;;;;;3.57;1.70;;;;;;;14.88;100.00;99826.59;5073550;28;20684;-76
2022/06/09 02:24:24;;;;;;;2.17;1.70;;;;;;;14.86;100.00;99832.75;5078574;28;20193;-78
2022/06/09 02:26:50;;;;;;;1.97;1.60;;;;;;;14.80;100.00;99830.34;5078046;28;20179;-75
2022/06/09 02:29:15;;;;;;;1.70;1.53;;;;;;;14.75;100.00;99828.75;5074062;28;20245;-75
2022/06/09 02:31:42;;;;;;;2.20;1.80;;;;;;;14.74;100.00;99834.88;5081587;28;20582;-75
2022/06/09 02:34:09;;;;;;;1.97;1.40;;;;;;;14.75;100.00;99836.56;5077617;28;20184;-77
2022/06/09 02:36:35;;;;;;;2.53;1.70;;;;;;;14.79;100.00;99845.13;5076808;28;20284;-75
2022/06/09 02:39:00;;;;;;;2.20;1.87;;;;;;;14.80;100.00;99841.63;5072734;28;20333;-76
2022/06/09 02:41:25;;;;;;;2.97;1.77;;;;;;;14.82;100.00;99845.03;5077136;28;20201;-76
2022/06/09 02:43:51;;;;;;;2.07;1.67;;;;;;;14.83;100.00;99862.34;5080660;28;20250;-75
2022/06/09 02:46:17;;;;;;;2.00;1.80;;;;;;;14.85;100.00;99855.34;5070087;28;20184;-75
2022/06/09 02:48:42;;;;;;;3.00;2.03;;;;;;;14.84;100.00;99853.66;5079721;28;20837;-75
2022/06/09 02:51:31;;;;;;;2.47;1.87;;;;;;;14.86;100.00;99853.56;5072753;28;20209;-74
2022/06/09 02:54:06;;;;;;;1.70;1.60;;;;;;;14.83;100.00;99864.09;5074357;28;20175;-76
2022/06/09 02:56:32;;;;;;;2.10;1.60;;;;;;;14.81;100.00;99864.16;5076926;28;20257;-77
2022/06/09 02:58:58;;;;;;;2.10;1.90;;;;;;;14.80;100.00;99862.44;5074823;28;20832;-76
2022/06/09 03:01:25;;;;;;;1.77;1.60;;;;;;;14.79;100.00;99873.78;5073125;28;20212;-77
2022/06/09 03:03:51;;;;;;;2.00;1.70;;;;;;;14.79;100.00;99878.97;5069310;28;20177;-76
2022/06/09 03:06:16;;;;;;;2.33;2.13;;;;;;;14.80;100.00;99875.47;5070330;28;20216;-75
2022/06/09 03:08:42;;;;;;;2.20;2.00;;;;;;;14.78;100.00;99870.34;5074735;28;20614;-76
2022/06/09 03:11:10;;;;;;;3.60;2.10;;;;;;;14.80;100.00;99872.88;5065209;28;20226;-75
2022/06/09 03:13:37;;;;;;;4.20;2.03;;;;;;;14.76;100.00;99877.34;5075734;28;20570;-76
2022/06/09 03:16:03;;;;;;;3.30;2.20;;;;;;;14.74;100.00;99873.09;5068869;28;20672;-75
2022/06/09 03:18:28;;;;;;;2.50;1.80;;;;;;;14.72;100.00;99874.91;5071991;28;20184;-76
2022/06/09 03:20:54;;;;;;;1.97;1.80;;;;;;;14.71;100.00;99884.44;5076273;28;20212;-76
2022/06/09 03:23:19;;;;;;;2.47;1.97;;;;;;;14.69;100.00;99885.41;5073011;28;20184;-75
2022/06/09 03:25:45;;;;;;;3.30;2.37;;;;;;;14.67;100.00;99884.56;5071234;28;20184;-77
2022/06/09 03:28:10;;;;;;;3.57;1.90;;;;;;;14.65;100.00;99884.63;5071924;28;20197;-76
2022/06/09 03:30:36;;;;;;;3.17;2.20;;;;;;;14.63;100.00;99891.63;5072127;28;20580;-75
2022/06/09 03:33:02;;;;;;;3.40;2.27;;;;;;;14.61;100.00;99899.47;5075320;28;20225;-76
2022/06/09 03:35:29;;;;;;;3.10;2.23;;;;;;;14.59;100.00;99903.91;5069234;28;20199;-77
2022/06/09 03:37:56;;;;;;;4.00;2.30;;;;;;;14.59;100.00;99906.50;5070159;28;20817;-76
2022/06/09 03:40:23;;;;;;;2.57;1.93;;;;;;;14.56;100.00;99901.41;5072426;28;20217;-75
2022/06/09 03:42:49;;;;;;;2.13;1.77;;;;;;;14.58;100.00;99909.16;5076294;28;20193;-74
2022/06/09 03:45:16;;;;;;;3.67;2.10;;;;;;;14.55;100.00;99907.50;5074042;28;20242;-78
2022/06/09 03:47:41;;;;;;;2.73;2.07;;;;;;;14.53;100.00;99911.03;5075217;28;20204;-76
2022/06/09 03:50:13;;;;;;;2.63;2.10;;;;;;;14.50;100.00;99917.19;5075322;28;20200;-76
2022/06/09 03:52:39;;;;;;;5.30;2.07;;;;;;;14.50;100.00;99916.38;5075130;28;20280;-78
2022/06/09 03:55:05;;;;;;;3.23;2.30;;;;;;;14.50;100.00;99925.00;5076245;28;20317;-75
2022/06/09 03:57:30;;;;;;;2.40;2.20;;;;;;;14.48;100.00;99924.22;5072280;28;20190;-74
2022/06/09 03:59:55;;;;;;;3.13;2.60;;;;;;;14.48;100.00;99921.59;5072894;28;20191;-75
2022/06/09 04:02:25;;;;;;;5.03;2.30;;;;;;;14.48;100.00;99921.59;5071449;28;20204;-74
2022/06/09 04:04:52;;;;;;;3.67;2.17;;;;;;;14.48;100.00;99922.47;5078428;28;20175;-75
2022/06/09 04:07:17;;;;;;;3.67;2.00;;;;;;;14.47;100.00;99925.97;5071078;28;20666;-75
2022/06/09 04:09:43;;;;;;;5.13;2.20;;;;;;;14.47;100.00;99922.50;5074431;28;20230;-76
2022/06/09 04:12:08;;;;;;;4.43;2.40;;;;;;;14.45;100.00;99930.38;5079515;28;20233;-75
2022/06/09 04:14:34;;;;;;;3.80;2.33;;;;;;;14.45;100.00;99927.75;5070523;28;20193;-74
2022/06/09 04:16:59;;;;;;;3.77;2.30;;;;;;;14.47;100.00;99938.13;5076994;28;20191;-75
2022/06/09 04:19:24;;;;;;;3.47;2.63;;;;;;;14.72;100.00;99929.59;5077140;28;20177;-76
2022/06/09 04:21:50;;;;;;;3.73;2.20;;;;;;;15.17;100.00;99934.19;5081621;28;20202;-77
2022/06/09 04:24:16;;;;;;;3.67;2.23;;;;;;;15.38;100.00;99931.75;5074770;28;20270;-77
2022/06/09 04:26:42;;;;;;;3.13;2.10;;;;;;;15.48;100.00;99942.72;5078289;28;20242;-76
2022/06/09 04:29:13;;;;;;;2.53;1.83;;;;;;;15.50;100.00;99944.34;5071097;28;20202;-74
2022/06/09 04:31:40;;;;;;;2.60;2.03;;;;;;;15.50;100.00;99946.13;5078460;28;20325;-77
2022/06/09 04:34:05;;;;;;;2.33;1.80;;;;;;;15.61;100.00;99945.75;5074138;28;20618;-76
2022/06/09 04:36:31;;;;;;;2.57;1.80;;;;;;;15.76;100.00;99945.19;5075692;28;20410;-75
2022/06/09 04:38:57;;;;;;;2.53;1.80;;;;;;;16.34;100.00;99951.78;5070351;28;20532;-76
2022/06/09 04:41:22;;;;;;;6.10;1.97;;;;;;;17.68;100.00;99950.72;5073772;28;20248;-77
2022/06/09 04:43:48;;;;;;;1.77;1.50;;;;;;;19.17;100.00;99962.19;5076692;28;20192;-76
2022/06/09 04:46:17;;;;;;;2.20;1.60;;;;;;;20.51;100.00;99957.84;5072884;28;20193;-77
2022/06/09 04:48:43;;;;;;;1.60;1.20;;;;;;;21.59;100.00;99964.81;5070339;28;20196;-77
2022/06/09 04:51:11;;;;;;;1.53;1.20;;;;;;;22.73;95.72;99961.34;5070851;28;20210;-76
2022/06/09 04:53:38;;;;;;;3.00;1.40;;;;;;;23.60;89.73;99956.44;5073829;28;20686;-77
2022/06/09 04:56:04;;;;;;;2.43;1.13;;;;;;;24.23;88.09;99968.88;5071206;28;20181;-75
2022/06/09 04:58:29;;;;;;;1.63;0.93;;;;;;;24.72;85.46;99964.47;5074841;28;20182;-78
2022/06/09 05:00:55;;;;;;;1.77;1.10;;;;;;;25.37;82.99;99978.19;5065101;28;20267;-76
2022/06/09 05:03:21;;;;;;;2.53;1.17;;;;;;;26.00;79.73;99980.44;5074620;28;20268;-76
2022/06/09 05:05:48;;;;;;;2.50;1.00;;;;;;;26.48;77.73;99981.13;5076752;28;20555;-76
2022/06/09 05:08:14;;;;;;;3.70;1.27;;;;;;;26.92;76.53;99989.94;5080858;28;20215;-78
2022/06/09 05:10:41;;;;;;;2.07;1.00;;;;;;;27.34;75.75;99986.47;5081485;28;20236;-77
2022/06/09 05:13:07;;;;;;;3.70;1.50;;;;;;;26.98;75.08;99995.72;5075241;28;20181;-77
2022/06/09 05:15:39;;;;;;;2.07;1.00;;;;;;;26.46;75.10;99991.03;5081975;28;20180;-75
2022/06/09 05:18:05;;;;;;;3.30;1.50;;;;;;;25.97;76.53;100004.53;5082127;28;20813;-76
2022/06/09 05:20:31;;;;;;;2.97;1.40;;;;;;;26.12;75.82;99996.38;5073884;28;20208;-76
2022/06/09 05:22:56;;;;;;;3.50;1.50;;;;;;;26.62;75.07;99990.63;5070476;28;20194;-74
2022/06/09 05:25:23;;;;;;;2.47;1.10;;;;;;;27.17;74.19;100000.31;5070996;28;20181;-76
2022/06/09 05:27:48;;;;;;;1.13;1.00;;;;;;;27.73;73.36;99999.16;5082721;28;20189;-75
2022/06/09 05:30:32;;;;;;;3.23;1.27;;;;;;;28.16;71.78;99994.63;5078543;28;20189;-74
2022/06/09 05:32:57;;;;;;;2.20;1.40;;;;;;;28.51;70.45;100003.94;5077279;28;20199;-75
2022/06/09 05:35:23;;;;;;;3.97;1.17;;;;;;;28.78;69.24;100004.28;5071200;28;20182;-77
2022/06/09 05:46:05;;;;;;;2.00;1.23;;;;;;;29.32;68.36;100007.34;5076312;28;20203;-75
2022/06/09 05:48:30;;;;;;;4.37;1.40;;;;;;;29.83;66.46;99999.13;5071775;28;20204;-75
2022/06/09 05:50:56;;;;;;;1.70;1.10;;;;;;;29.68;66.06;100004.94;5075104;28;20233;-77
2022/06/09 05:53:22;;;;;;;2.70;1.33;;;;;;;29.57;66.59;100013.09;5080497;28;20178;-76
2022/06/09 05:55:48;;;;;;;1.97;1.00;;;;;;;30.02;66.12;100017.75;5082210;28;20181;-74
2022/06/09 05:58:13;;;;;;;2.33;1.13;;;;;;;30.60;64.86;100012.25;5079131;28;20314;-77
2022/06/09 06:00:41;;;;;;;2.77;1.20;;;;;;;30.96;64.13;100014.94;5075881;28;20200;-75
2022/06/09 06:03:08;;;;;;;4.03;1.30;;;;;;;31.11;62.83;100012.56;5076806;28;20177;-75
2022/06/09 06:08:18;;;;;;;2.40;1.40;;;;;;;31.11;62.42;100025.91;5080784;28;20192;-75
2022/06/09 06:10:44;;;;;;;2.90;1.20;;;;;;;31.29;62.25;100029.44;5077880;28;20210;-76
2022/06/09 06:13:09;;;;;;;2.43;1.03;;;;;;;31.55;61.99;100031.28;5081905;28;20682;-75
2022/06/09 06:15:35;;;;;;;3.27;1.50;;;;;;;31.92;61.09;100035.56;5074273;28;20277;-76
2022/06/09 06:18:03;;;;;;;2.17;1.07;;;;;;;30.66;62.28;100049.88;5071953;28;20192;-76
2022/06/09 06:20:32;;;;;;;2.90;1.00;;;;;;;29.24;65.07;100045.38;5072763;28;20208;-76
2022/06/09 06:22:57;;;;;;;3.23;1.17;;;;;;;27.94;67.43;100044.31;5072536;28;20191;-75
2022/06/09 06:25:24;;;;;;;4.13;1.47;;;;;;;28.43;66.62;100044.56;5071046;28;20182;-76
2022/06/09 06:27:49;;;;;;;3.87;1.60;;;;;;;28.97;64.81;100060.25;5072420;28;20652;-76
2022/06/09 06:30:15;;;;;;;2.87;1.43;;;;;;;28.84;64.69;100055.16;5072648;28;20220;-75
2022/06/09 06:32:40;;;;;;;3.37;1.27;;;;;;;29.12;64.04;100060.66;5075567;28;20193;-75
2022/06/09 06:35:07;;;;;;;2.33;1.10;;;;;;;28.19;66.24;100057.34;5077128;28;20381;-75
2022/06/09 06:37:33;;;;;;;3.00;1.20;;;;;;;27.58;67.71;100061.63;5074981;28;20189;-74
2022/06/09 06:39:59;;;;;;;3.73;1.30;;;;;;;28.12;66.87;100067.69;5075070;28;20181;-75
2022/06/09 06:42:24;;;;;;;2.93;1.33;;;;;;;27.83;67.12;100068.34;5082181;28;20195;-75
2022/06/09 06:44:50;;;;;;;3.07;1.33;;;;;;;26.92;68.56;100072.22;5082846;28;20203;-76
2022/06/09 06:47:15;;;;;;;3.70;1.40;;;;;;;26.13;70.23;100073.16;5074879;28;20649;-76
2022/06/09 06:49:40;;;;;;;3.73;1.37;;;;;;;25.52;72.09;100084.81;5082151;28;20218;-76
2022/06/09 06:52:06;;;;;;;2.53;1.10;;;;;;;25.37;72.70;100078.84;5080979;28;20687;-76
2022/06/09 06:54:32;;;;;;;3.23;1.23;;;;;;;25.50;72.50;100077.94;5085692;28;20287;-76
2022/06/09 06:56:57;;;;;;;2.77;1.40;;;;;;;25.89;72.18;100075.03;5075960;28;20190;-78
2022/06/09 06:59:23;;;;;;;3.77;1.10;;;;;;;25.49;72.94;100087.69;5082940;28;20599;-77
2022/06/09 07:01:48;;;;;;;2.93;1.30;;;;;;;24.75;73.22;100093.06;5083137;28;20233;-76
2022/06/09 07:04:15;;;;;;;2.83;1.40;;;;;;;24.04;74.99;100093.56;5080036;28;20196;-78
2022/06/09 07:06:40;;;;;;;4.13;1.57;;;;;;;23.61;76.42;100105.22;5077971;28;20235;-76
2022/06/09 07:09:05;;;;;;;4.27;1.50;;;;;;;23.37;77.37;100092.66;5081180;28;20200;-77
2022/06/09 07:11:31;;;;;;;2.33;1.13;;;;;;;23.50;77.37;100107.72;5080781;28;20589;-78
2022/06/09 07:13:56;;;;;;;3.13;1.20;;;;;;;23.36;77.12;100106.84;5079999;28;20203;-77
2022/06/09 07:16:21;;;;;;;2.73;1.40;;;;;;;23.19;77.29;100099.97;5075981;28;20689;-76
2022/06/09 07:18:47;;;;;;;2.13;1.20;;;;;;;23.51;77.08;100102.34;5077086;28;20343;-76
2022/06/09 07:21:13;;;;;;;3.17;1.40;;;;;;;24.04;76.21;100112.91;5077966;28;20750;-75
2022/06/09 07:23:39;;;;;;;3.10;1.30;;;;;;;23.86;76.62;100109.69;5079429;28;20181;-76
2022/06/09 07:26:05;;;;;;;2.57;1.33;;;;;;;23.56;77.33;100120.50;5079477;28;20193;-77
2022/06/09 07:28:31;;;;;;;3.03;1.30;;;;;;;23.26;77.86;100119.78;5080374;28;20194;-77
2022/06/09 07:30:59;;;;;;;3.13;1.40;;;;;;;22.99;78.81;100119.75;5078568;28;20615;-75
2022/06/09 07:33:27;;;;;;;1.83;1.10;;;;;;;23.10;78.68;100124.34;5081324;28;20244;-76
2022/06/09 07:35:53;;;;;;;2.00;1.30;;;;;;;23.53;77.63;100116.28;5073544;28;20189;-75
2022/06/09 07:38:20;;;;;;;2.13;1.17;;;;;;;24.13;76.27;100115.84;5079068;28;20557;-75
2022/06/09 07:40:45;;;;;;;2.87;1.00;;;;;;;24.48;75.14;100117.84;5080940;28;20272;-76
2022/06/09 07:43:11;;;;;;;3.27;1.10;;;;;;;24.26;75.18;100118.50;5075257;28;20191;-77
2022/06/09 07:45:38;;;;;;;2.60;1.30;;;;;;;24.01;75.27;100125.50;5081205;28;20272;-76
2022/06/09 07:48:04;;;;;;;2.20;1.20;;;;;;;23.90;75.28;100129.66;5076648;28;20193;-77
2022/06/09 07:50:30;;;;;;;3.40;1.47;;;;;;;23.71;75.82;100129.22;5083590;28;20296;-77
2022/06/09 07:52:56;;;;;;;3.77;1.80;;;;;;;23.52;76.20;100127.78;5072792;28;20632;-76
2022/06/09 07:55:22;;;;;;;3.60;1.50;;;;;;;23.37;76.35;100134.91;5080773;28;20250;-76
2022/06/09 07:57:48;;;;;;;3.43;1.50;;;;;;;23.31;76.87;100137.09;5079391;28;20193;-75
2022/06/09 08:00:14;;;;;;;2.20;1.30;;;;;;;23.53;76.29;100133.91;5076339;28;20227;-75
2022/06/09 08:02:43;;;;;;;2.13;1.20;;;;;;;23.63;75.97;100142.06;5073099;28;20194;-75
2022/06/09 08:05:09;;;;;;;2.63;1.17;;;;;;;23.84;76.12;100139.78;5070435;28;20230;-75
2022/06/09 08:07:35;;;;;;;2.70;1.30;;;;;;;24.01;75.42;100134.25;5081066;28;20220;-76
2022/06/09 08:10:00;;;;;;;3.13;1.20;;;;;;;23.94;75.17;100137.38;5080188;28;20228;-75
2022/06/09 08:12:26;;;;;;;3.50;1.37;;;;;;;23.72;75.60;100134.38;5078671;28;20182;-75
2022/06/09 08:14:51;;;;;;;3.93;1.37;;;;;;;23.66;75.99;100129.53;5071419;28;20182;-75
2022/06/09 08:17:17;;;;;;;2.10;1.23;;;;;;;24.10;75.64;100130.13;5083335;28;20211;-75
2022/06/09 08:19:44;;;;;;;2.40;1.20;;;;;;;24.67;74.53;100135.91;5082067;28;20260;-75
2022/06/09 08:22:09;;;;;;;2.00;1.10;;;;;;;25.32;72.87;100133.94;5081881;28;20193;-75
2022/06/09 08:24:35;;;;;;;3.17;1.23;;;;;;;25.66;71.85;100139.44;5084496;28;20523;-74
2022/06/09 08:27:01;;;;;;;3.27;1.30;;;;;;;25.38;71.10;100137.94;5076627;28;20189;-75
2022/06/09 08:29:26;;;;;;;2.73;1.10;;;;;;;24.79;72.51;100140.38;5079033;28;20201;-76
2022/06/09 08:31:53;;;;;;;2.60;1.23;;;;;;;24.56;73.34;100135.84;5081380;28;20206;-75
2022/06/09 08:34:18;;;;;;;1.93;1.00;;;;;;;24.80;71.94;100138.56;5077109;28;20224;-73
2022/06/09 08:36:44;;;;;;;3.00;1.00;;;;;;;25.11;71.15;100139.84;5073025;28;20302;-75
2022/06/09 08:39:10;;;;;;;3.73;1.27;;;;;;;25.23;71.06;100140.75;5078184;28;20183;-74
2022/06/09 08:42:04;;;;;;;2.27;1.20;;;;;;;24.79;71.44;100153.63;5085387;28;20227;-74
2022/06/09 08:45:09;;;;;;;2.60;1.27;;;;;;;24.22;71.65;100154.91;5074054;28;20208;-76
2022/06/09 08:47:39;;;;;;;1.97;1.00;;;;;;;24.31;71.99;100148.13;5043182;28;20668;-75
2022/06/09 08:50:20;;;;;;;2.23;1.20;;;;;;;24.30;70.30;100141.97;5079629;28;20217;-76
2022/06/09 08:52:45;;;;;;;1.80;1.20;;;;;;;24.13;71.40;100158.16;5079590;28;20192;-76
2022/06/09 08:55:19;;;;;;;3.10;1.03;;;;;;;24.05;72.07;100148.09;5081464;28;20413;-75
2022/06/09 08:57:46;;;;;;;2.40;1.30;;;;;;;24.14;71.42;100150.13;5074649;28;20550;-75
2022/06/09 09:00:18;;;;;;;1.87;0.90;;;;;;;24.23;72.23;100153.09;5069090;28;20178;-76
2022/06/09 09:02:49;;;;;;;2.60;1.20;;;;;;;24.16;72.32;100152.66;5065223;28;20656;-75
2022/06/09 09:05:35;;;;;;;1.70;1.20;;;;;;;23.89;72.58;100151.78;5066492;28;20646;-75
2022/06/09 09:08:04;;;;;;;2.20;0.97;;;;;;;23.62;73.20;100161.50;5079480;28;20188;-74
2022/06/09 09:10:49;;;;;;;1.97;1.10;;;;;;;23.40;73.76;100161.13;5077778;28;20205;-75
2022/06/09 09:13:29;;;;;;;2.50;1.00;;;;;;;23.15;73.58;100161.81;5079298;28;20233;-75
2022/06/09 09:16:09;;;;;;;2.20;1.20;;;;;;;22.86;72.94;100167.16;5078566;28;20210;-75
2022/06/09 09:18:55;;;;;;;3.23;1.30;;;;;;;22.72;73.19;100165.41;5077130;28;20182;-75
2022/06/09 09:21:39;;;;;;;2.67;1.33;;;;;;;22.73;73.78;100182.91;5078007;28;20197;-76
2022/06/09 09:24:33;;;;;;;3.67;1.30;;;;;;;22.82;74.22;100177.06;5073656;28;20193;-75
2022/06/09 09:27:16;;;;;;;2.70;1.47;;;;;;;23.13;73.94;100177.78;5076600;28;20196;-74
2022/06/09 09:29:44;;;;;;;4.67;1.63;;;;;;;23.49;73.19;100183.44;5076823;28;20207;-75
2022/06/09 09:32:24;;;;;;;2.90;1.27;;;;;;;23.72;72.35;100178.47;5077172;28;20229;-75
2022/06/09 09:34:50;;;;;;;4.87;1.63;;;;;;;23.66;71.99;100182.38;5071678;28;20272;-75
2022/06/09 09:37:25;;;;;;;4.10;1.70;;;;;;;23.38;72.74;100181.50;5074216;28;20204;-76
2022/06/09 09:39:57;;;;;;;2.80;1.63;;;;;;;23.10;72.99;100195.59;5076977;28;20185;-74
2022/06/09 09:42:26;;;;;;;2.50;1.47;;;;;;;22.79;72.27;100194.88;5075905;28;20284;-76
2022/06/09 09:45:09;;;;;;;5.07;1.63;;;;;;;22.68;72.23;100199.03;5077957;28;20272;-76
2022/06/09 09:47:57;;;;;;;4.33;1.70;;;;;;;22.91;73.75;100194.09;5073609;28;20934;-76
2022/06/09 09:50:30;;;;;;;3.03;1.40;;;;;;;23.08;72.99;100203.59;5074274;28;20219;-76
2022/06/09 09:53:00;;;;;;;3.83;1.30;;;;;;;23.05;73.44;100195.91;5073317;28;20215;-76
2022/06/09 09:55:52;;;;;;;3.33;1.43;;;;;;;23.09;73.17;100196.53;5073956;28;20173;-76
2022/06/09 09:58:53;;;;;;;3.07;1.43;;;;;;;23.13;72.11;100196.25;5068246;28;20202;-75
2022/06/09 10:01:25;;;;;;;3.07;1.40;;;;;;;23.18;73.54;100195.94;5076287;28;20261;-77
2022/06/09 10:09:37;;;;;;;2.97;1.30;;;;;;;22.20;74.06;100208.91;5077098;28;20261;-75
2022/06/09 10:12:23;;;;;;;2.23;1.20;;;;;;;22.08;74.82;100205.22;5077348;28;20244;-78
2022/06/09 10:15:02;;;;;;;3.83;1.60;;;;;;;22.13;74.98;100207.56;5066711;28;20222;-74
2022/06/09 10:17:57;;;;;;;3.83;1.40;;;;;;;22.25;75.31;100206.84;5065263;28;20240;-75
2022/06/09 10:20:41;;;;;;;2.47;1.20;;;;;;;22.45;74.42;100207.47;5060657;28;20300;-78
2022/06/09 10:23:07;;;;;;;3.17;1.40;;;;;;;22.51;71.63;100201.84;5077462;28;20185;-77
2022/06/09 10:26:02;;;;;;;3.77;1.23;;;;;;;22.51;71.67;100207.94;5074714;28;21118;-77
2022/06/09 10:28:46;;;;;;;4.43;1.50;;;;;;;22.45;72.34;100212.75;5075855;28;20566;-76
2022/06/09 10:31:36;;;;;;;2.70;1.43;;;;;;;22.52;73.32;100209.66;5071234;28;20221;-77
2022/06/09 10:34:23;;;;;;;2.37;1.23;;;;;;;22.62;73.40;100209.94;5071739;28;20656;-77
2022/06/09 10:37:10;;;;;;;2.67;1.13;;;;;;;22.60;72.97;100216.28;5063665;28;20279;-75
2022/06/09 10:40:00;;;;;;;1.80;1.07;;;;;;;22.47;73.22;100214.34;5076637;28;20706;-77
2022/06/09 10:42:39;;;;;;;1.17;0.80;;;;;;;22.35;73.19;100215.06;5073257;28;20646;-76
2022/06/09 10:45:22;;;;;;;2.03;1.13;;;;;;;22.31;72.66;100218.84;5067122;28;20190;-76
2022/06/09 10:57:01;;;;;;;1.93;1.00;;;;;;;22.85;70.35;100207.66;5072017;28;21038;-76
2022/06/09 10:59:29;;;;;;;2.90;1.00;;;;;;;22.98;69.45;100203.34;5070007;28;20195;-74
2022/06/09 11:01:54;;;;;;;2.50;1.20;;;;;;;23.06;70.17;100202.00;5072759;28;20201;-75
2022/06/09 11:04:21;;;;;;;2.10;0.97;;;;;;;23.17;69.85;100204.81;5070589;28;20317;-75
2022/06/09 11:07:18;;;;;;;2.23;1.03;;;;;;;23.39;69.61;100212.25;5074743;28;20193;-75
2022/06/09 11:09:53;;;;;;;2.10;0.90;;;;;;;23.55;68.15;100204.19;5074387;28;20248;-76
2022/06/09 11:12:25;;;;;;;2.13;0.93;;;;;;;23.75;67.63;100197.59;5077039;28;20378;-75
2022/06/09 11:15:09;;;;;;;2.07;1.00;;;;;;;24.04;67.52;100200.13;5076201;28;20182;-76
2022/06/09 11:17:56;;;;;;;3.17;1.17;;;;;;;24.42;65.94;100195.84;5068795;28;20190;-76
2022/06/09 11:21:03;;;;;;;2.20;0.97;;;;;;;24.74;64.80;100197.22;5070711;28;20238;-76
2022/06/09 11:23:56;;;;;;;1.73;0.90;;;;;;;24.85;64.69;100202.63;5072373;28;20197;-76
2022/06/09 11:26:58;;;;;;;2.00;1.20;;;;;;;24.93;65.42;100202.09;5074325;28;20187;-76
2022/06/09 11:29:50;;;;;;;2.93;1.23;;;;;;;24.88;65.08;100202.38;5080065;28;20583;-77
2022/06/09 11:32:31;;;;;;;2.47;1.37;;;;;;;24.50;65.22;100201.44;5072516;28;20307;-76
2022/06/09 11:35:15;;;;;;;2.33;1.10;;;;;;;24.16;65.83;100194.97;5072029;28;20664;-76
2022/06/09 11:37:49;;;;;;;2.57;1.60;;;;;;;23.91;66.51;100191.31;5076203;28;20194;-76
2022/06/09 11:40:24;;;;;;;2.20;1.17;;;;;;;23.89;67.27;100187.91;5072867;28;20713;-76
2022/06/09 11:43:08;;;;;;;3.07;1.27;;;;;;;24.02;66.65;100194.09;5073359;28;20188;-76
2022/06/09 11:45:40;;;;;;;2.07;1.10;;;;;;;24.12;66.17;100191.69;5083258;28;20727;-76
2022/06/09 11:48:13;;;;;;;2.67;1.27;;;;;;;24.11;65.60;100194.44;5072342;28;20202;-76
2022/06/09 11:50:42;;;;;;;2.33;1.27;;;;;;;24.10;66.19;100192.75;5080737;28;20225;-76
2022/06/09 11:53:16;;;;;;;2.70;1.20;;;;;;;24.22;65.99;100196.34;5074819;28;20216;-76
2022/06/09 11:56:00;;;;;;;2.30;1.30;;;;;;;24.28;62.34;100198.59;5074952;28;20200;-75
2022/06/09 11:58:31;;;;;;;2.77;1.37;;;;;;;24.24;62.04;100191.81;5080313;28;20192;-76
2022/06/09 12:01:06;;;;;;;2.27;1.00;;;;;;;24.25;63.13;100194.34;5077742;28;20217;-77
2022/06/09 12:04:02;;;;;;;2.17;1.10;;;;;;;24.47;64.25;100198.16;5074962;28;20192;-76
2022/06/09 12:06:33;;;;;;;2.63;1.30;;;;;;;24.65;64.79;100194.25;5077539;28;20656;-77
2022/06/09 12:09:27;;;;;;;2.20;1.30;;;;;;;24.78;64.86;100202.22;5076776;28;20197;-78